createdAt,value
2022-11-05T00:02:27.631Z,97249.91
2022-11-05T00:06:48.200Z,97256.41
2022-11-05T00:10:51.803Z,97255.63
2022-11-05T00:15:12.688Z,97252.03
2022-11-05T00:19:18.009Z,97273.00
2022-11-05T00:23:38.552Z,97273.00
2022-11-05T00:27:42.277Z,97276.44
2022-11-05T00:31:45.893Z,97264.22
2022-11-05T00:35:50.849Z,97279.66
2022-11-05T00:39:53.868Z,97281.47
2022-11-05T00:44:14.788Z,97289.09
2022-11-05T00:48:35.295Z,97296.75
2022-11-05T00:52:59.907Z,97302.91
2022-11-05T00:57:04.810Z,97312.69
2022-11-05T01:01:08.841Z,97313.78
2022-11-05T01:05:12.419Z,97300.16
2022-11-05T01:09:17.314Z,97294.44
2022-11-05T01:13:22.265Z,97286.34
2022-11-05T01:17:25.995Z,97293.00
2022-11-05T01:21:29.362Z,97288.59
2022-11-05T01:25:34.073Z,97281.44
2022-11-05T01:29:37.565Z,97291.84
2022-11-05T01:33:41.072Z,97293.25
2022-11-05T01:37:44.954Z,97316.50
2022-11-05T01:41:49.390Z,97322.00
2022-11-05T01:45:55.243Z,97329.78
2022-11-05T01:50:02.414Z,97328.34
2022-11-05T01:54:09.070Z,97337.63
2022-11-05T01:58:19.325Z,97345.25
2022-11-05T02:02:22.539Z,97346.72
2022-11-05T02:06:29.449Z,97345.59
2022-11-05T02:10:34.769Z,97354.84
2022-11-05T02:14:39.928Z,97351.31
2022-11-05T02:18:53.644Z,97363.97
2022-11-05T02:23:35.237Z,97356.81
2022-11-05T02:28:05.296Z,97369.66
2022-11-05T02:32:19.502Z,97368.22
2022-11-05T02:36:36.124Z,97375.19
2022-11-05T02:40:49.062Z,97384.13
2022-11-05T02:45:02.392Z,97368.69
2022-11-05T02:49:13.850Z,97361.69
2022-11-05T02:53:22.330Z,97364.13
2022-11-05T02:57:25.882Z,97360.56
2022-11-05T03:01:29.038Z,97361.03
2022-11-05T03:05:42.257Z,97368.22
2022-11-05T03:10:07.238Z,97375.69
2022-11-05T03:14:22.250Z,97384.78
2022-11-05T03:18:35.915Z,97383.84
2022-11-05T03:22:44.895Z,97378.28
2022-11-05T03:26:56.939Z,97387.09
2022-11-05T03:31:01.390Z,97385.47
2022-11-05T03:35:10.210Z,97384.16
2022-11-05T03:39:19.768Z,97390.47
2022-11-05T03:43:26.745Z,97372.44
2022-11-05T03:47:34.011Z,97375.53
2022-11-05T03:51:45.453Z,97390.63
2022-11-05T03:55:55.110Z,97396.28
2022-11-05T03:59:59.296Z,97405.22
2022-11-05T04:04:02.387Z,97401.16
2022-11-05T04:08:38.203Z,97408.81
2022-11-05T04:13:00.715Z,97388.75
2022-11-05T04:17:23.308Z,97422.75
2022-11-05T04:21:44.143Z,97417.56
2022-11-05T04:25:47.512Z,97425.81
2022-11-05T04:30:09.461Z,97407.59
2022-11-05T04:34:12.449Z,97410.34
2022-11-05T04:38:17.656Z,97408.53
2022-11-05T04:42:20.730Z,97409.94
2022-11-05T04:46:25.526Z,97424.22
2022-11-05T04:50:28.798Z,97427.91
2022-11-05T04:54:32.294Z,97426.59
2022-11-05T04:58:35.615Z,97434.81
2022-11-05T05:02:40.561Z,97438.69
2022-11-05T05:06:43.594Z,97437.22
2022-11-05T05:10:47.314Z,97448.59
2022-11-05T05:14:50.399Z,97466.78
2022-11-05T05:18:55.919Z,97481.38
2022-11-05T05:22:58.982Z,97465.78
2022-11-05T05:27:02.465Z,97480.09
2022-11-05T05:31:05.664Z,97487.59
2022-11-05T05:35:11.872Z,97494.66
2022-11-05T05:39:14.942Z,97502.94
2022-11-05T05:43:18.527Z,97500.03
2022-11-05T05:47:21.619Z,97499.59
2022-11-05T05:51:26.569Z,97498.31
2022-11-05T05:55:31.391Z,97504.03
2022-11-05T05:59:34.430Z,97503.56
2022-11-05T06:03:38.143Z,97510.22
2022-11-05T06:07:42.655Z,97521.13
2022-11-05T06:11:46.434Z,97528.91
2022-11-05T06:15:49.501Z,97533.16
2022-11-05T06:19:53.170Z,97529.59
2022-11-05T06:23:57.551Z,97537.22
2022-11-05T06:28:01.737Z,97544.88
2022-11-05T06:32:06.965Z,97537.75
2022-11-05T06:36:15.641Z,97542.94
2022-11-05T06:40:21.133Z,97543.59
2022-11-05T06:44:24.469Z,97550.25
2022-11-05T06:48:27.899Z,97559.56
2022-11-05T06:52:31.403Z,97557.28
2022-11-05T06:56:36.349Z,97568.22
2022-11-05T07:00:40.166Z,97572.28
2022-11-05T07:04:43.471Z,97585.63
2022-11-05T07:08:47.157Z,97600.91
2022-11-05T07:12:51.770Z,97604.03
2022-11-05T07:16:55.325Z,97605.81
2022-11-05T07:21:00.173Z,97618.50
2022-11-05T07:25:03.945Z,97623.41
2022-11-05T07:29:08.458Z,97620.19
2022-11-05T07:33:12.073Z,97623.28
2022-11-05T07:37:17.201Z,97629.34
2022-11-05T07:41:20.157Z,97633.00
2022-11-05T07:45:25.921Z,97632.03
2022-11-05T07:49:28.932Z,97638.41
2022-11-05T07:53:32.396Z,97645.75
2022-11-05T07:57:41.800Z,97647.72
2022-11-05T08:01:47.061Z,97656.53
2022-11-05T08:05:50.806Z,97654.28
2022-11-05T08:09:54.307Z,97658.06
2022-11-05T08:13:57.612Z,97658.22
2022-11-05T08:18:03.881Z,97660.75
2022-11-05T08:22:06.811Z,97658.31
2022-11-05T08:26:10.300Z,97664.88
2022-11-05T08:30:14.139Z,97668.16
2022-11-05T08:34:19.104Z,97669.94
2022-11-05T08:38:22.651Z,97670.13
2022-11-05T08:42:26.234Z,97667.84
2022-11-05T08:46:29.347Z,97665.56
2022-11-05T08:50:35.540Z,97670.78
2022-11-05T08:54:39.025Z,97687.25
2022-11-05T08:58:42.075Z,97683.84
2022-11-05T09:02:46.408Z,97682.69
2022-11-05T09:06:51.939Z,97695.91
2022-11-05T09:10:55.398Z,97694.28
2022-11-05T09:14:58.570Z,97702.91
2022-11-05T09:19:04.077Z,97695.91
2022-11-05T09:23:09.287Z,97695.91
2022-11-05T09:27:15.079Z,97699.78
2022-11-05T09:31:18.117Z,97701.44
2022-11-05T09:35:21.593Z,97702.75
2022-11-05T09:39:26.416Z,97705.31
2022-11-05T09:43:35.052Z,97709.88
2022-11-05T09:47:43.085Z,97711.00
2022-11-05T09:51:46.560Z,97712.50
2022-11-05T09:55:55.501Z,97712.63
2022-11-05T10:00:01.296Z,97708.34
2022-11-05T10:04:10.632Z,97706.53
2022-11-05T10:08:19.541Z,97718.94
2022-11-05T10:12:27.685Z,97719.25
2022-11-05T10:16:34.214Z,97715.66
2022-11-05T10:20:39.839Z,97714.16
2022-11-05T10:24:46.892Z,97726.38
2022-11-05T10:28:53.012Z,97719.75
2022-11-05T10:33:01.131Z,97724.63
2022-11-05T10:41:54.030Z,97733.03
2022-11-05T10:46:20.126Z,97724.78
2022-11-05T10:50:34.019Z,97722.56
2022-11-05T10:54:44.075Z,97725.59
2022-11-05T10:58:59.677Z,97730.72
2022-11-05T11:03:46.699Z,97727.75
2022-11-05T11:08:26.021Z,97714.09
2022-11-05T11:12:41.223Z,97733.50
2022-11-05T11:16:57.956Z,97736.13
2022-11-05T11:21:13.879Z,97737.56
2022-11-05T11:25:28.734Z,97735.59
2022-11-05T11:29:49.123Z,97740.19
2022-11-05T11:34:01.300Z,97743.31
2022-11-05T11:38:11.885Z,97754.31
2022-11-05T11:42:23.162Z,97761.63
2022-11-05T11:46:26.946Z,97761.88
2022-11-05T11:50:40.541Z,97766.88
2022-11-05T11:54:44.601Z,97768.25
2022-11-05T11:58:51.331Z,97766.97
2022-11-05T12:03:21.536Z,97771.03
2022-11-05T12:07:37.225Z,97769.38
2022-11-05T12:11:46.852Z,97767.69
2022-11-05T12:15:54.426Z,97781.06
2022-11-05T12:20:18.856Z,97766.97
2022-11-05T12:24:39.425Z,97771.84
2022-11-05T12:29:18.978Z,97768.63
2022-11-05T12:33:39.622Z,97775.19
2022-11-05T12:37:53.974Z,97773.13
2022-11-05T12:42:03.205Z,97765.22
2022-11-05T12:46:18.609Z,97766.28
2022-11-05T12:50:33.009Z,97756.50
2022-11-05T12:54:51.046Z,97756.66
2022-11-05T12:59:01.116Z,97762.19
2022-11-05T13:03:19.175Z,97751.84
2022-11-05T13:07:30.535Z,97750.66
2022-11-05T13:11:39.601Z,97762.66
2022-11-05T13:15:51.145Z,97765.59
2022-11-05T13:19:59.985Z,97763.59
2022-11-05T13:24:11.423Z,97767.38
2022-11-05T13:28:23.274Z,97765.13
2022-11-05T13:32:32.619Z,97767.81
2022-11-05T13:37:02.624Z,97774.88
2022-11-05T13:41:19.794Z,97776.91
2022-11-05T13:45:46.481Z,97782.16
2022-11-05T13:50:26.132Z,97792.81
2022-11-05T13:55:05.919Z,97800.72
2022-11-05T13:59:39.026Z,97810.19
2022-11-05T14:03:50.601Z,97816.13
2022-11-05T14:07:54.900Z,97810.75
2022-11-05T14:12:00.787Z,97813.84
2022-11-05T14:16:07.180Z,97823.34
2022-11-05T14:20:39.297Z,97819.63
2022-11-05T14:24:44.409Z,97829.94
2022-11-05T14:29:26.661Z,97820.78
2022-11-05T14:33:39.250Z,97815.25
2022-11-05T14:37:54.062Z,97812.13
2022-11-05T14:42:02.494Z,97818.53
2022-11-05T14:46:08.514Z,97818.53
2022-11-05T14:50:20.002Z,97833.88
2022-11-05T14:54:28.024Z,97830.59
2022-11-05T14:58:35.993Z,97847.25
2022-11-05T15:02:40.405Z,97850.38
2022-11-05T15:07:14.366Z,97851.19
2022-11-05T15:11:24.823Z,97857.06
2022-11-05T15:15:31.812Z,97854.47
2022-11-05T15:19:37.830Z,97855.94
2022-11-05T15:23:44.944Z,97860.16
2022-11-05T15:28:00.666Z,97860.00
2022-11-05T15:32:04.355Z,97865.09
2022-11-05T15:36:12.339Z,97866.53
2022-11-05T15:40:24.851Z,97858.38
2022-11-05T15:44:31.988Z,97868.28
2022-11-05T15:48:37.613Z,97863.72
2022-11-05T15:52:48.852Z,97873.97
2022-11-05T15:56:55.307Z,97880.66
2022-11-05T16:01:00.473Z,97872.63
2022-11-05T16:05:11.645Z,97873.94
2022-11-05T16:09:27.064Z,97877.84
2022-11-05T16:13:35.556Z,97878.31
2022-11-05T16:17:51.661Z,97882.06
2022-11-05T16:21:56.097Z,97878.78
2022-11-05T16:25:59.674Z,97893.63
2022-11-05T16:30:02.802Z,97898.19
2022-11-05T16:34:07.750Z,97906.00
2022-11-05T16:38:14.893Z,97909.75
2022-11-05T16:42:39.196Z,97921.16
2022-11-05T16:46:44.921Z,97922.44
2022-11-05T16:55:07.383Z,97930.06
2022-11-05T16:59:13.816Z,97931.22
2022-11-05T17:03:17.466Z,97936.72
2022-11-05T17:07:20.991Z,97946.50
2022-11-05T17:11:26.435Z,97962.13
2022-11-05T17:15:34.647Z,97956.28
2022-11-05T17:19:42.792Z,97955.44
2022-11-05T17:23:45.819Z,97958.34
2022-11-05T17:27:51.570Z,97960.81
2022-11-05T17:31:54.638Z,97968.78
2022-11-05T17:35:58.245Z,97973.16
2022-11-05T17:40:01.877Z,97984.28
2022-11-05T17:44:08.911Z,97991.25
2022-11-05T17:48:12.650Z,97983.59
2022-11-05T17:52:16.065Z,97988.81
2022-11-05T17:56:32.502Z,97986.06
2022-11-05T18:00:38.446Z,97988.97
2022-11-05T18:04:42.274Z,97993.06
2022-11-05T18:08:46.390Z,97998.28
2022-11-05T18:12:49.701Z,97990.63
2022-11-05T18:16:56.054Z,97995.84
2022-11-05T18:20:59.051Z,97996.94
2022-11-05T18:25:02.619Z,98003.13
2022-11-05T18:29:07.016Z,98008.66
2022-11-05T18:33:11.778Z,98013.22
2022-11-05T18:37:15.454Z,98016.91
2022-11-05T18:41:19.433Z,98015.44
2022-11-05T18:45:29.410Z,98024.41
2022-11-05T18:49:34.331Z,98030.59
2022-11-05T18:53:37.850Z,98039.50
2022-11-05T18:57:40.976Z,98041.16
2022-11-05T19:01:45.373Z,98044.72
2022-11-05T19:05:50.154Z,98050.91
2022-11-05T19:09:54.031Z,98062.31
2022-11-05T19:13:57.185Z,98059.84
2022-11-05T19:18:00.274Z,98058.03
2022-11-05T19:22:05.087Z,98058.38
2022-11-05T19:26:09.534Z,98056.72
2022-11-05T19:30:13.010Z,98055.09
2022-11-05T19:34:16.857Z,98060.59
2022-11-05T19:38:21.604Z,98060.59
2022-11-05T19:42:25.358Z,98066.94
2022-11-05T19:46:29.479Z,98062.84
2022-11-05T19:50:33.103Z,98069.16
2022-11-05T19:54:38.902Z,98067.53
2022-11-05T19:58:42.847Z,98070.56
2022-11-05T20:02:47.695Z,98068.25
2022-11-05T20:06:51.690Z,98067.63
2022-11-05T20:10:57.060Z,98078.31
2022-11-05T20:15:00.830Z,98082.19
2022-11-05T20:19:06.361Z,98090.44
2022-11-05T20:23:09.715Z,98090.19
2022-11-05T20:27:17.144Z,98089.13
2022-11-05T20:31:21.265Z,98082.34
2022-11-05T20:35:25.893Z,98087.31
2022-11-05T20:39:31.166Z,98091.75
2022-11-05T20:43:36.304Z,98092.47
2022-11-05T20:47:40.103Z,98087.69
2022-11-05T20:51:44.167Z,98102.78
2022-11-05T20:55:49.411Z,98097.88
2022-11-05T20:59:54.817Z,98099.66
2022-11-05T21:04:02.530Z,98100.91
2022-11-05T21:08:08.315Z,98096.13
2022-11-05T21:12:11.636Z,98099.97
2022-11-05T21:16:19.137Z,98105.47
2022-11-05T21:20:23.540Z,98111.09
2022-11-05T21:24:26.544Z,98103.56
2022-11-05T21:28:30.311Z,98100.97
2022-11-05T21:32:34.825Z,98106.44
2022-11-05T21:36:38.419Z,98098.56
2022-11-05T21:40:42.247Z,98098.84
2022-11-05T21:44:45.730Z,98097.75
2022-11-05T21:48:50.157Z,98096.00
2022-11-05T21:53:11.051Z,98089.88
2022-11-05T21:57:33.651Z,98096.19
2022-11-05T22:01:37.765Z,98097.28
2022-11-05T22:05:42.374Z,98097.31
2022-11-05T22:09:46.267Z,98099.72
2022-11-05T22:13:49.998Z,98103.56
2022-11-05T22:17:53.005Z,98098.66
2022-11-05T22:21:58.840Z,98105.78
2022-11-05T22:26:03.409Z,98104.94
2022-11-05T22:30:07.748Z,98098.25
2022-11-05T22:34:11.842Z,98101.91
2022-11-05T22:38:16.739Z,98107.41
2022-11-05T22:42:19.839Z,98109.56
2022-11-05T22:46:25.452Z,98109.97
2022-11-05T22:50:28.564Z,98101.94
2022-11-05T22:54:38.843Z,98104.91
2022-11-05T22:58:43.205Z,98111.75
2022-11-05T23:02:46.935Z,98107.09
2022-11-05T23:07:07.711Z,98110.06
2022-11-05T23:11:34.645Z,98116.34
2022-11-05T23:15:54.945Z,98115.78
2022-11-05T23:20:16.108Z,98115.13
2022-11-05T23:24:19.464Z,98110.88
2022-11-05T23:28:24.400Z,98116.06
2022-11-05T23:32:28.625Z,98113.06
2022-11-05T23:36:49.390Z,98121.09
2022-11-05T23:41:09.847Z,98114.94
2022-11-05T23:45:32.478Z,98109.09
2022-11-05T23:49:35.824Z,98103.00
2022-11-05T23:53:41.701Z,98111.59
2022-11-05T23:57:44.722Z,98115.03
